Time;durP1;ratioP1;P1;durP2;ratioP2;P2;SDS_P1;SDS_P2;PMS_P1;PMS_P2;Temp;Humidity;BMP_temperature;BMP_pressure;BME280_temperature;BME280_humidity;BME280_pressure;Samples;Min_cycle;Max_cycle;Signal;HPM_P1;HPM_P2
2023/08/21 00:01:29;;;;;;;11.30;8.60;;;;;;;21.85;100.00;99388.27;109587;1250;66765;-71
2023/08/21 00:03:55;;;;;;;9.40;8.60;;;;;;;21.83;100.00;99389.01;109623;1251;71185;-72
2023/08/21 00:06:22;;;;;;;9.40;8.70;;;;;;;21.80;100.00;99382.35;109639;1250;62312;-70
2023/08/21 00:08:49;;;;;;;9.60;8.70;;;;;;;21.73;100.00;99384.02;109692;1250;58828;-71
2023/08/21 00:11:15;;;;;;;9.90;9.10;;;;;;;21.68;100.00;99385.22;109665;1250;74392;-73
2023/08/21 00:13:44;;;;;;;9.60;8.90;;;;;;;21.65;100.00;99388.30;109666;1250;65881;-71
2023/08/21 00:16:11;;;;;;;11.10;9.60;;;;;;;21.60;100.00;99392.20;109629;1250;72386;-72
2023/08/21 00:18:37;;;;;;;11.20;10.10;;;;;;;21.56;100.00;99391.13;109587;1250;61856;-74
2023/08/21 00:21:04;;;;;;;10.10;9.10;;;;;;;21.54;100.00;99393.37;109665;1250;58845;-73
2023/08/21 00:23:31;;;;;;;10.80;9.80;;;;;;;21.52;100.00;99389.17;109649;1250;74948;-70
2023/08/21 00:25:58;;;;;;;10.10;8.90;;;;;;;21.49;100.00;99392.20;109706;1252;67694;-72
2023/08/21 00:28:24;;;;;;;10.40;9.60;;;;;;;21.46;100.00;99392.30;109692;1250;72525;-72
2023/08/21 00:30:51;;;;;;;10.10;9.20;;;;;;;21.42;100.00;99392.54;109665;1250;61743;-74
2023/08/21 00:33:17;;;;;;;10.20;9.40;;;;;;;21.35;100.00;99394.21;109538;1251;60360;-71
2023/08/21 00:35:44;;;;;;;9.70;8.90;;;;;;;21.29;100.00;99392.30;109672;1251;74457;-73
2023/08/21 00:38:11;;;;;;;10.60;9.80;;;;;;;21.26;100.00;99390.45;109655;1250;59040;-75
2023/08/21 00:40:38;;;;;;;11.50;10.50;;;;;;;21.25;100.00;99390.52;109527;1250;72716;-71
2023/08/21 00:43:04;;;;;;;10.30;9.50;;;;;;;21.25;100.00;99395.71;109616;1250;58986;-72
2023/08/21 00:45:31;;;;;;;11.00;10.20;;;;;;;21.27;100.00;99400.43;109691;1250;58953;-71
2023/08/21 00:47:57;;;;;;;10.90;10.10;;;;;;;21.30;100.00;99397.45;109687;1250;74452;-72
2023/08/21 00:50:24;;;;;;;10.50;9.60;;;;;;;21.32;100.00;99397.54;109601;1250;66905;-73
2023/08/21 00:52:50;;;;;;;9.90;9.10;;;;;;;21.35;100.00;99396.78;109670;1250;71180;-70
2023/08/21 00:55:17;;;;;;;11.00;10.00;;;;;;;21.37;100.00;99394.73;109487;1251;62493;-73
2023/08/21 00:57:44;;;;;;;10.80;9.90;;;;;;;21.36;100.00;99394.60;109597;1250;59995;-71
2023/08/21 01:00:11;;;;;;;9.60;8.70;;;;;;;21.35;100.00;99396.47;109574;1250;74699;-75
2023/08/21 01:02:38;;;;;;;10.20;9.50;;;;;;;21.34;100.00;99397.75;109612;1250;67888;-73
2023/08/21 01:05:09;;;;;;;10.90;10.00;;;;;;;21.31;100.00;99399.92;109692;1250;71457;-75
2023/08/21 01:07:38;;;;;;;9.70;8.90;;;;;;;21.30;100.00;99403.19;109696;1250;61785;-73
2023/08/21 01:10:11;;;;;;;10.00;9.20;;;;;;;21.29;100.00;99403.81;109592;1251;60102;-71
2023/08/21 01:13:00;;;;;;;10.00;9.30;;;;;;;21.28;100.00;99405.84;109578;1250;74699;-72
2023/08/21 01:15:26;;;;;;;10.10;9.30;;;;;;;21.25;100.00;99405.09;109578;1250;67591;-70
2023/08/21 01:17:53;;;;;;;9.90;9.00;;;;;;;21.22;100.00;99406.83;109578;1250;72143;-72
2023/08/21 01:20:20;;;;;;;9.90;9.10;;;;;;;21.20;100.00;99407.63;109540;1250;61810;-71
2023/08/21 01:22:46;;;;;;;10.30;9.40;;;;;;;21.19;100.00;99410.82;109597;1250;60002;-72
2023/08/21 01:25:15;;;;;;;9.70;9.00;;;;;;;21.17;100.00;99407.70;109531;1251;73782;-74
2023/08/21 01:27:45;;;;;;;10.00;9.20;;;;;;;21.17;100.00;99411.31;109726;1250;67866;-74
2023/08/21 01:30:12;;;;;;;9.90;9.00;;;;;;;21.17;100.00;99415.05;109590;1250;72534;-71
2023/08/21 01:32:48;;;;;;;10.00;9.20;;;;;;;21.15;100.00;99417.17;109680;1250;60684;-71
2023/08/21 01:35:16;;;;;;;9.80;9.00;;;;;;;21.08;100.00;99411.45;109472;1252;60009;-69
2023/08/21 01:37:42;;;;;;;9.60;8.80;;;;;;;21.01;100.00;99418.68;109487;1250;74535;-68
2023/08/21 01:40:09;;;;;;;10.80;9.90;;;;;;;20.94;100.00;99415.68;109685;1249;67902;-72
2023/08/21 01:42:38;;;;;;;10.20;9.20;;;;;;;20.92;100.00;99411.91;109607;1250;71872;-71
2023/08/21 01:45:06;;;;;;;10.70;9.90;;;;;;;20.91;100.00;99409.05;109693;1250;61032;-71
2023/08/21 01:47:32;;;;;;;9.10;8.40;;;;;;;20.90;100.00;99410.74;109621;1250;60351;-68
2023/08/21 01:49:59;;;;;;;10.70;9.80;;;;;;;20.89;100.00;99408.55;109545;1250;74767;-72
2023/08/21 01:52:26;;;;;;;10.70;9.90;;;;;;;20.88;100.00;99406.95;109690;1250;66459;-72
2023/08/21 01:54:53;;;;;;;10.10;9.30;;;;;;;20.87;100.00;99404.65;109644;1250;72654;-71
2023/08/21 01:57:19;;;;;;;10.40;9.60;;;;;;;20.86;100.00;99405.13;109625;1250;61760;-73
2023/08/21 01:59:46;;;;;;;9.80;9.10;;;;;;;20.85;100.00;99405.02;109337;1250;58935;-70
2023/08/21 02:02:13;;;;;;;10.70;10.00;;;;;;;20.86;100.00;99403.36;109608;1250;74489;-70
2023/08/21 02:04:39;;;;;;;10.90;9.80;;;;;;;20.85;100.00;99404.90;109663;1250;66484;-71
2023/08/21 02:07:07;;;;;;;10.30;9.40;;;;;;;20.85;100.00;99406.95;109708;1250;71405;-70
2023/08/21 02:09:33;;;;;;;10.70;9.90;;;;;;;20.84;100.00;99408.54;109652;1250;60858;-68
2023/08/21 02:12:00;;;;;;;10.20;9.20;;;;;;;20.83;100.00;99407.67;109645;1250;60023;-73
2023/08/21 02:14:27;;;;;;;10.20;9.30;;;;;;;20.80;100.00;99411.05;109659;1250;74476;-72
2023/08/21 02:16:53;;;;;;;9.80;9.00;;;;;;;20.77;100.00;99410.45;109587;1250;58947;-70
2023/08/21 02:19:20;;;;;;;10.60;9.80;;;;;;;20.75;100.00;99410.58;109677;1250;72326;-71
2023/08/21 02:21:47;;;;;;;10.20;9.30;;;;;;;20.73;100.00;99412.35;109625;1250;61026;-73
2023/08/21 02:24:13;;;;;;;10.80;10.00;;;;;;;20.72;100.00;99411.91;109627;1250;58914;-69
2023/08/21 02:26:40;;;;;;;11.20;10.40;;;;;;;20.73;100.00;99410.15;109679;1250;74499;-71
2023/08/21 02:29:06;;;;;;;11.00;10.20;;;;;;;20.73;100.00;99406.20;109693;1250;66270;-70
2023/08/21 02:31:33;;;;;;;10.90;10.00;;;;;;;20.73;100.00;99408.24;109643;1250;72614;-74
2023/08/21 02:34:00;;;;;;;10.80;9.90;;;;;;;20.70;100.00;99412.26;109666;1251;60973;-71
2023/08/21 02:36:26;;;;;;;10.20;9.40;;;;;;;20.67;100.00;99413.02;109610;1250;58969;-71
2023/08/21 02:38:53;;;;;;;11.00;10.10;;;;;;;20.63;100.00;99416.79;109655;1250;74930;-71
2023/08/21 02:41:20;;;;;;;11.00;10.10;;;;;;;20.62;100.00;99413.78;109539;1250;66513;-73
2023/08/21 02:43:46;;;;;;;10.90;10.00;;;;;;;20.58;100.00;99416.84;109657;1250;71350;-71
2023/08/21 02:46:14;;;;;;;10.80;9.90;;;;;;;20.55;100.00;99415.91;109549;1250;60011;-72
2023/08/21 02:48:41;;;;;;;11.10;10.30;;;;;;;20.51;100.00;99410.95;109616;1251;58918;-73
2023/08/21 02:51:07;;;;;;;10.80;10.00;;;;;;;20.48;100.00;99412.46;109724;1250;59609;-70
2023/08/21 02:53:34;;;;;;;10.60;9.80;;;;;;;20.47;100.00;99413.29;109642;1253;67919;-72
2023/08/21 02:56:00;;;;;;;10.60;9.70;;;;;;;20.46;100.00;99415.25;109750;1250;73256;-72
2023/08/21 02:58:27;;;;;;;10.70;9.70;;;;;;;20.43;100.00;99417.25;109529;1250;61864;-70
2023/08/21 03:00:54;;;;;;;11.30;10.50;;;;;;;20.41;100.00;99418.88;109679;1250;59052;-73
2023/08/21 03:03:21;;;;;;;11.40;10.20;;;;;;;20.41;100.00;99419.80;109678;1254;74397;-70
2023/08/21 03:05:49;;;;;;;10.80;10.00;;;;;;;20.39;100.00;99420.73;109456;1250;67646;-70
2023/08/21 03:08:16;;;;;;;11.30;10.40;;;;;;;20.35;100.00;99417.92;109634;1250;72446;-72
2023/08/21 03:10:43;;;;;;;11.50;10.50;;;;;;;20.32;100.00;99418.06;109624;1251;61851;-70
2023/08/21 03:13:09;;;;;;;11.30;10.30;;;;;;;20.29;100.00;99414.16;109589;1250;59234;-72
2023/08/21 03:15:36;;;;;;;10.60;9.70;;;;;;;20.28;100.00;99414.10;109555;1252;74458;-73
2023/08/21 03:18:03;;;;;;;11.50;10.50;;;;;;;20.29;100.00;99413.58;109651;1250;67219;-73
2023/08/21 03:20:30;;;;;;;10.90;9.90;;;;;;;20.30;100.00;99413.65;109522;1250;72682;-72
2023/08/21 03:22:56;;;;;;;11.60;10.70;;;;;;;20.31;100.00;99414.17;109538;1250;60566;-72
2023/08/21 03:25:23;;;;;;;10.50;9.60;;;;;;;20.35;100.00;99416.58;109447;1250;60098;-72
2023/08/21 03:27:50;;;;;;;12.20;11.20;;;;;;;20.39;100.00;99415.27;109464;1250;74725;-70
2023/08/21 03:30:17;;;;;;;10.90;10.20;;;;;;;20.43;100.00;99420.05;109655;1250;67780;-72
2023/08/21 03:32:44;;;;;;;11.20;10.30;;;;;;;20.49;100.00;99421.88;109690;1250;73191;-71
2023/08/21 03:35:11;;;;;;;12.10;11.00;;;;;;;20.55;100.00;99422.06;109532;1251;60075;-72
2023/08/21 03:37:37;;;;;;;11.00;10.10;;;;;;;20.61;100.00;99425.98;109633;1250;59041;-71
2023/08/21 03:40:05;;;;;;;10.90;9.80;;;;;;;20.66;100.00;99426.98;109581;1250;74659;-71
2023/08/21 03:42:33;;;;;;;11.10;10.30;;;;;;;20.71;100.00;99425.03;109499;1250;67770;-71
2023/08/21 03:45:03;;;;;;;12.40;10.50;;;;;;;20.77;100.00;99423.38;109569;1250;72467;-74
2023/08/21 03:47:31;;;;;;;11.30;10.30;;;;;;;20.84;100.00;99423.59;109551;1250;61986;-72
2023/08/21 03:50:01;;;;;;;10.50;9.70;;;;;;;20.94;100.00;99426.18;109504;1251;59869;-68
2023/08/21 03:52:28;;;;;;;10.90;10.00;;;;;;;21.06;100.00;99425.45;109660;1250;75564;-72
2023/08/21 03:54:54;;;;;;;10.70;9.60;;;;;;;21.18;100.00;99425.30;109726;1250;68555;-70
2023/08/21 03:57:21;;;;;;;11.20;10.30;;;;;;;21.34;100.00;99425.38;109596;1251;71130;-70
2023/08/21 03:59:47;;;;;;;10.70;10.00;;;;;;;21.51;100.00;99422.43;109656;1250;58939;-73
2023/08/21 04:02:14;;;;;;;10.30;9.30;;;;;;;21.71;100.00;99426.05;109689;1250;59993;-71
2023/08/21 04:04:41;;;;;;;12.60;9.20;;;;;;;21.91;100.00;99424.98;109578;1251;74213;-71
2023/08/21 04:07:07;;;;;;;10.30;9.20;;;;;;;22.12;100.00;99421.75;109652;1250;66448;-71
2023/08/21 04:09:37;;;;;;;11.10;10.10;;;;;;;22.34;100.00;99419.45;109582;1251;72849;-73
2023/08/21 04:12:04;;;;;;;9.90;9.00;;;;;;;22.57;100.00;99417.58;109640;1251;60953;-71
2023/08/21 04:14:31;;;;;;;10.10;9.10;;;;;;;22.78;100.00;99416.33;109611;1251;60332;-69
2023/08/21 04:16:57;;;;;;;10.80;9.80;;;;;;;22.98;100.00;99416.32;109699;1250;58982;-70
2023/08/21 04:19:25;;;;;;;10.10;9.10;;;;;;;23.19;100.00;99412.14;109547;1251;58992;-70
2023/08/21 04:21:52;;;;;;;9.70;8.80;;;;;;;23.41;100.00;99415.02;109481;1251;71154;-71
2023/08/21 04:24:18;;;;;;;10.40;9.60;;;;;;;23.65;100.00;99412.83;109529;1257;60416;-72
2023/08/21 04:26:45;;;;;;;10.60;9.70;;;;;;;23.87;100.00;99409.56;109616;1250;59027;-72
2023/08/21 04:29:11;;;;;;;11.40;10.30;;;;;;;24.06;100.00;99410.40;109565;1250;74474;-71
2023/08/21 04:31:38;;;;;;;10.50;9.70;;;;;;;24.27;100.00;99408.94;109661;1251;67972;-74
2023/08/21 04:34:05;;;;;;;9.90;9.10;;;;;;;24.45;100.00;99405.81;109558;1250;72908;-73
2023/08/21 04:36:31;;;;;;;9.90;9.00;;;;;;;24.61;100.00;99401.72;109495;1251;62048;-74
2023/08/21 04:38:59;;;;;;;10.70;9.70;;;;;;;24.76;100.00;99396.48;109690;1250;59297;-70
2023/08/21 04:41:26;;;;;;;10.30;9.30;;;;;;;24.94;100.00;99396.53;109687;1251;73381;-72
2023/08/21 04:43:53;;;;;;;10.50;9.60;;;;;;;25.14;100.00;99393.73;109567;1251;66850;-70
2023/08/21 04:46:21;;;;;;;11.10;10.10;;;;;;;25.33;100.00;99391.30;109524;1251;71284;-74
2023/08/21 04:48:48;;;;;;;11.40;10.40;;;;;;;25.56;100.00;99385.93;109528;1254;60237;-72
2023/08/21 04:51:15;;;;;;;10.20;9.40;;;;;;;25.81;100.00;99383.84;109560;1250;60305;-72
2023/08/21 04:53:42;;;;;;;10.60;9.50;;;;;;;26.08;100.00;99384.52;109524;1251;73975;-69
2023/08/21 04:56:12;;;;;;;10.00;9.00;;;;;;;26.32;100.00;99380.37;109642;1250;66362;-71
2023/08/21 04:58:39;;;;;;;10.10;9.20;;;;;;;26.53;100.00;99383.92;109536;1251;71640;-72
2023/08/21 05:01:06;;;;;;;10.80;9.90;;;;;;;26.75;100.00;99381.15;109553;1250;59210;-71
2023/08/21 05:03:35;;;;;;;10.60;9.80;;;;;;;26.95;100.00;99379.57;109597;1251;59025;-69
2023/08/21 05:06:02;;;;;;;12.60;10.00;;;;;;;27.14;100.00;99379.44;109646;1251;72725;-71
2023/08/21 05:08:28;;;;;;;11.60;10.50;;;;;;;27.37;100.00;99378.95;109727;1250;66735;-71
2023/08/21 05:10:56;;;;;;;11.30;10.30;;;;;;;27.58;100.00;99382.33;109491;1256;72579;-67
2023/08/21 05:13:23;;;;;;;11.00;9.90;;;;;;;27.78;100.00;99383.95;109497;1250;61858;-65
2023/08/21 05:15:56;;;;;;;10.50;9.50;;;;;;;27.99;100.00;99378.91;109476;1250;245264;-72
2023/08/21 05:18:23;;;;;;;11.40;10.30;;;;;;;28.17;100.00;99381.89;109546;1251;73224;-71
2023/08/21 05:20:50;;;;;;;10.60;9.70;;;;;;;28.36;100.00;99378.45;109635;1250;67718;-74
2023/08/21 05:23:17;;;;;;;12.30;11.00;;;;;;;28.56;100.00;99380.05;109570;1250;72690;-73
2023/08/21 05:25:44;;;;;;;12.00;10.50;;;;;;;28.72;100.00;99382.96;109561;1251;59550;-71
2023/08/21 05:28:11;;;;;;;11.80;10.80;;;;;;;28.85;100.00;99379.96;109570;1251;58923;-70
2023/08/21 05:30:38;;;;;;;10.50;9.70;;;;;;;29.06;100.00;99383.77;109592;1250;73355;-69
2023/08/21 05:33:04;;;;;;;12.60;11.60;;;;;;;29.28;100.00;99384.54;109554;1251;66851;-73
2023/08/21 05:35:36;;;;;;;11.80;10.70;;;;;;;29.47;100.00;99384.82;109522;1257;72742;-67
2023/08/21 05:38:03;;;;;;;11.10;10.30;;;;;;;29.69;100.00;99389.48;109586;1251;60149;-70
2023/08/21 05:40:30;;;;;;;11.80;10.40;;;;;;;29.92;100.00;99385.36;109533;1251;59354;-66
2023/08/21 05:42:57;;;;;;;9.60;8.90;;;;;;;30.05;100.00;99380.54;109549;1250;74685;-65
2023/08/21 05:45:24;;;;;;;10.80;9.90;;;;;;;30.18;100.00;99385.25;109661;1250;68386;-65
2023/08/21 05:47:51;;;;;;;12.60;11.50;;;;;;;30.45;100.00;99388.15;109649;1251;71781;-70
2023/08/21 05:50:17;;;;;;;13.10;11.90;;;;;;;30.62;100.00;99390.31;109569;1251;60309;-67
2023/08/21 05:52:44;;;;;;;14.20;12.90;;;;;;;30.74;100.00;99389.70;109662;1250;60187;-68
2023/08/21 05:55:11;;;;;;;13.50;12.20;;;;;;;30.87;100.00;99390.89;109500;1251;73094;-67
2023/08/21 05:57:38;;;;;;;15.80;14.20;;;;;;;30.98;100.00;99391.59;109668;1251;67877;-72
2023/08/21 06:00:08;;;;;;;16.00;14.40;;;;;;;31.08;100.00;99392.11;109660;1251;71340;-69
2023/08/21 06:02:42;;;;;;;15.20;13.70;;;;;;;31.19;100.00;99391.00;109670;1250;60156;-70
2023/08/21 06:05:12;;;;;;;14.70;13.40;;;;;;;31.33;100.00;99390.00;109469;1251;59086;-71
2023/08/21 06:07:40;;;;;;;16.10;14.50;;;;;;;31.47;100.00;99391.12;109505;1250;72915;-70
2023/08/21 06:10:14;;;;;;;17.20;15.50;;;;;;;31.60;100.00;99391.86;109709;1250;67935;-73
2023/08/21 06:12:41;;;;;;;18.30;16.40;;;;;;;31.71;100.00;99394.10;109624;1251;72578;-70
2023/08/21 06:15:09;;;;;;;16.30;14.70;;;;;;;31.76;100.00;99393.81;109544;1250;60042;-69
2023/08/21 06:17:36;;;;;;;12.90;11.70;;;;;;;31.79;100.00;99391.64;109651;1251;58991;-71
2023/08/21 06:20:08;;;;;;;11.90;10.80;;;;;;;31.89;100.00;99389.20;109664;1251;74598;-70
2023/08/21 06:22:38;;;;;;;13.90;10.00;;;;;;;32.03;100.00;99385.87;109543;1250;67793;-75
2023/08/21 06:25:05;;;;;;;10.10;9.30;;;;;;;32.14;100.00;99388.95;109615;1251;72696;-76
2023/08/21 06:27:31;;;;;;;10.40;9.60;;;;;;;32.25;100.00;99382.16;109572;1251;60050;-68
2023/08/21 06:30:08;;;;;;;10.30;9.30;;;;;;;32.40;100.00;99372.92;109568;1251;59046;-69
2023/08/21 06:32:35;;;;;;;13.60;9.90;;;;;;;32.54;100.00;99374.30;109460;1251;73153;-73
2023/08/21 06:35:02;;;;;;;10.10;9.30;;;;;;;32.68;99.94;99373.44;109560;1251;67962;-72
2023/08/21 06:37:29;;;;;;;9.60;8.80;;;;;;;32.83;99.31;99372.02;109593;1254;72640;-66
2023/08/21 06:39:56;;;;;;;9.50;8.80;;;;;;;33.02;97.48;99376.55;109550;1251;60227;-67
2023/08/21 06:42:23;;;;;;;10.90;9.90;;;;;;;33.17;96.36;99373.84;109570;1250;59164;-66
2023/08/21 06:44:50;;;;;;;13.10;9.90;;;;;;;33.72;93.60;99374.70;109527;1251;72446;-67
2023/08/21 06:47:17;;;;;;;9.60;8.80;;;;;;;34.35;89.74;99369.52;109629;1251;66653;-66
2023/08/21 06:49:44;;;;;;;13.00;9.20;;;;;;;34.86;86.44;99370.26;109650;1251;71447;-66
2023/08/21 06:52:10;;;;;;;12.40;9.00;;;;;;;35.14;82.02;99369.95;109590;1251;59029;-67
2023/08/21 06:54:37;;;;;;;10.40;8.20;;;;;;;35.49;80.38;99370.10;109671;1251;58950;-67
2023/08/21 06:57:04;;;;;;;8.60;8.00;;;;;;;35.82;77.16;99371.95;109753;1251;74700;-67
2023/08/21 06:59:33;;;;;;;9.40;8.20;;;;;;;36.25;74.30;99371.48;109657;1251;68097;-67
2023/08/21 07:02:00;;;;;;;9.00;8.10;;;;;;;36.65;70.58;99367.82;109657;1250;71825;-68
2023/08/21 07:04:27;;;;;;;8.70;7.90;;;;;;;37.00;66.94;99366.70;109588;1251;59984;-66
2023/08/21 07:06:53;;;;;;;9.30;8.50;;;;;;;37.41;63.48;99365.88;109661;1251;59109;-66
2023/08/21 07:09:23;;;;;;;9.70;8.60;;;;;;;37.85;60.40;99360.39;109689;1251;74645;-66
2023/08/21 07:11:50;;;;;;;9.60;8.30;;;;;;;38.17;58.04;99361.86;109693;1250;66455;-66
2023/08/21 07:14:17;;;;;;;13.40;8.50;;;;;;;38.47;54.67;99362.68;109538;1250;75148;-66
2023/08/21 07:16:43;;;;;;;8.40;7.50;;;;;;;38.58;52.43;99361.87;109600;1250;60098;-67
2023/08/21 07:19:10;;;;;;;8.70;7.90;;;;;;;38.78;51.61;99365.55;109661;1250;58967;-68
2023/08/21 07:21:38;;;;;;;9.20;8.40;;;;;;;38.78;51.44;99363.89;109677;1251;74705;-67
2023/08/21 07:24:05;;;;;;;10.00;8.60;;;;;;;38.53;51.66;99365.23;109614;1250;67807;-66
2023/08/21 07:26:31;;;;;;;10.00;9.00;;;;;;;38.38;51.85;99370.86;109573;1250;73001;-68
2023/08/21 07:28:58;;;;;;;11.50;8.70;;;;;;;38.32;51.11;99369.18;109494;1250;59300;-68
2023/08/21 07:31:25;;;;;;;8.80;8.00;;;;;;;38.36;51.46;99372.00;109514;1251;58897;-68
2023/08/21 07:33:52;;;;;;;10.00;8.60;;;;;;;38.60;51.30;99367.71;109499;1251;74541;-67
2023/08/21 07:36:18;;;;;;;9.80;8.80;;;;;;;38.88;49.96;99365.10;109504;1250;66533;-70
2023/08/21 07:38:45;;;;;;;9.50;8.60;;;;;;;39.12;49.35;99366.15;109612;1250;72863;-65
2023/08/21 07:41:12;;;;;;;10.20;8.30;;;;;;;39.22;48.56;99365.15;109514;1251;60024;-68
2023/08/21 07:43:40;;;;;;;9.60;8.90;;;;;;;39.23;47.04;99365.89;109656;1250;60509;-66
2023/08/21 07:46:09;;;;;;;13.50;7.90;;;;;;;38.98;46.59;99365.35;109583;1250;73109;-67
2023/08/21 07:48:36;;;;;;;9.90;9.10;;;;;;;38.88;46.84;99366.38;109589;1250;68779;-67
2023/08/21 07:51:03;;;;;;;9.40;7.10;;;;;;;38.82;47.33;99367.73;109532;1252;72552;-66
2023/08/21 07:53:31;;;;;;;8.90;8.00;;;;;;;38.92;47.12;99365.98;109530;1251;59638;-68
2023/08/21 07:55:58;;;;;;;8.70;7.90;;;;;;;38.82;46.07;99372.41;109586;1250;60425;-67
2023/08/21 07:58:24;;;;;;;9.40;7.60;;;;;;;38.63;46.44;99372.95;109605;1250;74425;-68
2023/08/21 08:00:51;;;;;;;8.40;7.50;;;;;;;38.70;47.11;99368.85;109549;1250;68014;-67
2023/08/21 08:03:18;;;;;;;8.00;7.20;;;;;;;38.83;45.67;99372.91;109584;1250;73847;-65
2023/08/21 08:05:45;;;;;;;9.00;8.10;;;;;;;38.61;45.56;99368.77;109557;1250;60271;-69
2023/08/21 08:08:21;;;;;;;9.70;8.70;;;;;;;38.42;46.18;99372.95;109560;1250;60278;-66
2023/08/21 08:10:48;;;;;;;12.20;8.10;;;;;;;38.33;46.88;99371.84;109653;1250;74589;-67
2023/08/21 08:13:14;;;;;;;8.10;7.40;;;;;;;38.49;47.45;99372.65;109671;1251;67983;-68
2023/08/21 08:15:41;;;;;;;14.70;6.80;;;;;;;38.66;46.17;99372.40;109602;1251;72522;-67
2023/08/21 08:18:12;;;;;;;6.90;6.30;;;;;;;39.02;45.15;99372.73;109530;1250;60076;-68
2023/08/21 08:20:39;;;;;;;8.00;7.00;;;;;;;39.20;43.85;99372.56;109632;1250;60369;-67
2023/08/21 08:23:05;;;;;;;7.80;7.10;;;;;;;39.12;43.39;99370.60;109433;1250;73114;-70
2023/08/21 08:25:32;;;;;;;8.00;7.20;;;;;;;39.10;44.16;99368.73;109520;1250;68315;-67
2023/08/21 08:27:58;;;;;;;7.70;7.00;;;;;;;39.09;43.92;99373.08;109524;1250;71226;-66
2023/08/21 08:30:25;;;;;;;7.40;6.90;;;;;;;39.12;43.62;99371.89;109623;1250;60173;-66
2023/08/21 08:32:52;;;;;;;9.40;6.30;;;;;;;39.13;43.45;99371.42;109509;1250;60170;-68
2023/08/21 08:35:19;;;;;;;7.00;6.40;;;;;;;39.12;42.98;99367.59;109673;1250;74635;-67
2023/08/21 08:37:45;;;;;;;6.20;5.60;;;;;;;39.21;42.92;99373.70;109604;1250;66343;-70
2023/08/21 08:40:12;;;;;;;6.50;5.70;;;;;;;39.40;43.38;99370.00;109527;1250;72514;-70
2023/08/21 08:42:39;;;;;;;6.30;5.80;;;;;;;39.68;42.78;99377.40;109591;1250;60133;-69
2023/08/21 08:45:06;;;;;;;5.80;5.40;;;;;;;39.94;41.73;99373.48;109567;1250;58986;-67
2023/08/21 08:47:34;;;;;;;6.10;5.60;;;;;;;40.09;40.91;99375.31;109605;1250;74359;-68
2023/08/21 08:50:03;;;;;;;5.90;5.40;;;;;;;40.22;40.86;99374.30;109680;1250;67694;-67
2023/08/21 08:52:31;;;;;;;6.80;5.00;;;;;;;40.38;39.77;99375.71;109597;1250;72559;-70
2023/08/21 08:54:58;;;;;;;5.50;5.10;;;;;;;40.41;39.48;99368.20;109539;1252;60556;-69
2023/08/21 08:57:25;;;;;;;5.40;4.90;;;;;;;40.50;39.24;99370.08;109664;1250;60108;-71
2023/08/21 08:59:51;;;;;;;5.40;5.00;;;;;;;40.47;38.44;99370.57;109702;1250;74455;-67
2023/08/21 09:02:18;;;;;;;11.70;5.90;;;;;;;40.52;38.18;99367.25;109682;1250;67885;-68
2023/08/21 09:04:45;;;;;;;6.00;5.50;;;;;;;40.56;38.33;99368.74;109673;1250;71269;-72
2023/08/21 09:07:12;;;;;;;5.70;5.10;;;;;;;40.65;37.89;99366.27;109585;1250;58957;-69
2023/08/21 09:09:39;;;;;;;6.30;5.60;;;;;;;40.80;37.82;99364.70;109624;1250;59205;-69
2023/08/21 09:12:16;;;;;;;5.10;4.70;;;;;;;40.95;37.44;99361.14;109643;1250;73215;-67
2023/08/21 09:14:43;;;;;;;6.30;4.90;;;;;;;40.96;36.83;99361.30;109601;1250;67010;-69
2023/08/21 09:17:10;;;;;;;5.80;5.40;;;;;;;41.14;37.20;99355.13;109473;1251;71082;-69
2023/08/21 09:19:36;;;;;;;5.90;5.10;;;;;;;41.36;37.01;99357.62;109490;1250;60040;-70
2023/08/21 09:22:15;;;;;;;6.20;5.40;;;;;;;41.34;36.58;99352.33;109568;1250;60085;-71
2023/08/21 09:25:10;;;;;;;5.50;5.00;;;;;;;40.93;36.79;99355.35;109539;1250;73146;-72
2023/08/21 09:27:38;;;;;;;5.50;5.10;;;;;;;40.66;37.01;99351.47;109578;1250;67915;-66
2023/08/21 09:30:08;;;;;;;5.60;5.00;;;;;;;40.64;36.65;99346.96;109605;1250;72580;-71
2023/08/21 09:32:56;;;;;;;5.60;5.10;;;;;;;40.54;36.85;99348.01;109462;1250;58959;-68
2023/08/21 09:35:23;;;;;;;7.90;4.80;;;;;;;40.46;36.38;99342.57;109643;1250;60091;-73
2023/08/21 09:37:52;;;;;;;7.60;4.20;;;;;;;40.49;35.97;99344.47;109587;1250;74642;-71
2023/08/21 09:40:20;;;;;;;4.60;4.20;;;;;;;40.53;35.36;99335.06;109638;1250;67221;-69
2023/08/21 09:42:51;;;;;;;5.20;4.80;;;;;;;40.55;35.01;99337.91;109626;1250;72846;-68
2023/08/21 09:45:21;;;;;;;8.30;4.80;;;;;;;40.52;35.06;99338.56;109584;1250;59283;-71
2023/08/21 09:47:47;;;;;;;4.90;4.50;;;;;;;40.67;35.31;99335.80;109660;1250;59240;-69
2023/08/21 09:50:14;;;;;;;5.70;4.30;;;;;;;41.01;34.54;99334.77;109639;1250;74134;-69
2023/08/21 09:52:42;;;;;;;4.30;4.00;;;;;;;40.93;34.25;99330.73;109489;1251;66854;-71
2023/08/21 09:55:10;;;;;;;5.30;4.80;;;;;;;40.85;35.24;99330.90;109531;1250;71458;-71
2023/08/21 09:57:38;;;;;;;5.20;4.80;;;;;;;40.89;35.11;99332.82;109404;1250;60712;-71
2023/08/21 10:00:15;;;;;;;6.60;5.00;;;;;;;40.92;35.18;99327.30;109569;1250;59046;-70
2023/08/21 10:02:47;;;;;;;6.30;4.60;;;;;;;41.03;35.65;99327.71;109620;1250;74966;-69
2023/08/21 10:05:16;;;;;;;7.30;4.80;;;;;;;41.29;35.00;99327.52;109634;1250;67637;-68
2023/08/21 10:07:44;;;;;;;5.40;4.70;;;;;;;41.29;34.81;99328.80;109592;1250;72577;-70
2023/08/21 10:10:11;;;;;;;5.10;4.60;;;;;;;40.84;35.22;99330.23;109612;1250;60297;-70
2023/08/21 10:12:38;;;;;;;6.00;5.30;;;;;;;40.30;35.75;99329.14;109519;1250;59102;-70
2023/08/21 10:15:06;;;;;;;4.90;4.50;;;;;;;39.94;36.45;99330.67;109600;1250;73722;-69
2023/08/21 10:17:33;;;;;;;5.60;5.10;;;;;;;39.91;35.94;99325.30;109424;1250;67002;-68
2023/08/21 10:20:07;;;;;;;6.60;4.50;;;;;;;39.87;35.75;99325.30;109509;1250;71426;-69
2023/08/21 10:22:43;;;;;;;4.80;4.40;;;;;;;39.76;36.02;99325.70;109654;1250;59018;-69
2023/08/21 10:25:25;;;;;;;5.00;4.50;;;;;;;39.69;36.30;99324.69;109655;1250;58986;-68
2023/08/21 10:27:59;;;;;;;5.70;5.20;;;;;;;39.55;36.71;99321.80;109647;1250;74663;-68
2023/08/21 10:30:28;;;;;;;5.30;4.90;;;;;;;39.23;36.85;99315.16;109651;1250;66575;-67
2023/08/21 10:32:56;;;;;;;6.80;5.00;;;;;;;38.97;37.09;99307.24;109652;1250;72654;-67
2023/08/21 10:35:30;;;;;;;4.70;4.40;;;;;;;38.86;37.84;99311.04;109596;1250;59142;-69
2023/08/21 10:38:07;;;;;;;5.10;4.70;;;;;;;38.99;38.07;99310.79;109596;1251;60126;-70
2023/08/21 10:40:34;;;;;;;5.40;5.00;;;;;;;38.85;38.02;99306.56;109535;1250;73356;-69
2023/08/21 10:43:02;;;;;;;5.30;4.90;;;;;;;38.61;38.43;99310.70;109659;1250;66831;-70
2023/08/21 10:45:29;;;;;;;5.30;4.90;;;;;;;38.50;39.39;99308.46;109642;1250;72638;-69
2023/08/21 10:47:57;;;;;;;4.90;4.60;;;;;;;38.59;39.98;99301.86;109604;1250;59452;-69
2023/08/21 10:50:24;;;;;;;5.80;5.20;;;;;;;38.86;39.60;99297.14;109598;1250;59214;-73
2023/08/21 10:52:52;;;;;;;5.80;5.30;;;;;;;39.06;39.80;99295.67;109627;1251;73842;-70
2023/08/21 10:55:18;;;;;;;5.00;4.60;;;;;;;39.23;38.93;99297.05;109557;1250;67728;-69
2023/08/21 10:57:49;;;;;;;5.00;4.60;;;;;;;39.24;38.38;99298.99;109663;1250;72666;-72
2023/08/21 11:00:20;;;;;;;5.60;4.50;;;;;;;39.28;37.74;99297.40;109648;1250;60368;-69
2023/08/21 11:02:49;;;;;;;6.50;5.10;;;;;;;39.14;37.26;99294.45;109662;1250;60137;-72
2023/08/21 11:05:15;;;;;;;4.90;4.50;;;;;;;38.90;37.87;99290.80;109620;1250;74836;-71
2023/08/21 11:07:44;;;;;;;5.40;5.00;;;;;;;38.77;39.43;99288.27;109608;1250;67830;-70
2023/08/21 11:10:16;;;;;;;6.00;5.30;;;;;;;38.79;40.14;99288.01;109571;1250;71671;-70
2023/08/21 11:12:52;;;;;;;5.20;4.80;;;;;;;38.74;38.64;99289.38;109467;1251;60219;-69
2023/08/21 11:15:19;;;;;;;6.50;4.80;;;;;;;38.50;38.54;99295.20;109605;1250;59072;-67
2023/08/21 11:18:00;;;;;;;5.40;5.00;;;;;;;38.11;39.56;99287.89;109521;1250;73200;-65